Time;durP1;ratioP1;P1;durP2;ratioP2;P2;SDS_P1;SDS_P2;PMS_P1;PMS_P2;Temp;Humidity;BMP_temperature;BMP_pressure;BME280_temperature;BME280_humidity;BME280_pressure;Samples;Min_cycle;Max_cycle;Signal;HPM_P1;HPM_P2
2022/08/07 00:00:47;;;;;;;5.28;0.73;;;21.20;52.10;;;;;;4935549;29;20059;-88
2022/08/07 00:03:12;;;;;;;4.22;0.70;;;21.10;52.10;;;;;;4935910;29;20055;-87
2022/08/07 00:05:38;;;;;;;1.17;0.68;;;21.20;52.00;;;;;;4934211;29;20117;-88
2022/08/07 00:08:04;;;;;;;2.78;0.82;;;21.20;52.10;;;;;;4918448;29;20035;-88
2022/08/07 00:10:31;;;;;;;2.35;0.70;;;21.10;51.90;;;;;;4935438;29;20493;-88
2022/08/07 00:12:58;;;;;;;4.30;0.70;;;21.10;52.20;;;;;;4935651;29;20059;-87
2022/08/07 00:15:24;;;;;;;3.75;1.00;;;21.00;52.80;;;;;;4935241;29;20275;-87
2022/08/07 00:17:50;;;;;;;2.70;0.80;;;21.00;52.50;;;;;;4935194;29;20252;-88
2022/08/07 00:20:16;;;;;;;2.20;0.88;;;21.00;52.70;;;;;;4935144;29;20400;-87
2022/08/07 00:22:41;;;;;;;3.92;0.80;;;20.90;52.40;;;;;;4935022;29;20035;-88
2022/08/07 00:25:08;;;;;;;6.07;1.10;;;20.90;53.00;;;;;;4933350;29;20440;-87
2022/08/07 00:27:35;;;;;;;1.55;0.68;;;20.90;52.80;;;;;;4935270;29;20035;-88
2022/08/07 00:30:01;;;;;;;1.33;0.60;;;20.90;53.10;;;;;;4935020;29;20408;-88
2022/08/07 00:32:27;;;;;;;4.88;0.90;;;20.80;53.00;;;;;;4933315;29;20035;-88
2022/08/07 00:34:53;;;;;;;1.20;0.80;;;20.80;53.20;;;;;;4935101;29;20031;-88
2022/08/07 00:37:18;;;;;;;3.50;0.65;;;20.80;54.00;;;;;;4934812;29;20064;-88
2022/08/07 00:39:44;;;;;;;2.60;0.90;;;20.80;53.40;;;;;;4934822;29;20367;-88
2022/08/07 00:42:10;;;;;;;2.90;1.00;;;20.80;53.30;;;;;;4934643;29;20480;-87
2022/08/07 00:44:36;;;;;;;1.15;0.60;;;20.80;53.60;;;;;;4934985;29;20472;-88
2022/08/07 00:47:04;;;;;;;4.05;0.68;;;20.70;53.80;;;;;;4934865;29;20024;-88
2022/08/07 00:49:30;;;;;;;2.13;0.85;;;20.70;53.90;;;;;;4934613;29;20024;-87
2022/08/07 00:51:55;;;;;;;1.00;0.60;;;20.60;53.70;;;;;;4933283;29;20110;-87
2022/08/07 00:54:21;;;;;;;1.42;0.70;;;20.60;53.80;;;;;;4934960;29;20492;-87
2022/08/07 00:56:48;;;;;;;2.95;0.80;;;20.60;54.50;;;;;;4934516;29;20492;-88
2022/08/07 00:59:14;;;;;;;1.98;0.70;;;20.60;54.00;;;;;;4932842;29;20492;-88
2022/08/07 01:01:40;;;;;;;2.55;0.85;;;20.60;54.20;;;;;;4934237;29;20024;-88
2022/08/07 01:04:06;;;;;;;1.95;0.85;;;20.50;54.40;;;;;;4934322;29;20020;-87
2022/08/07 01:06:32;;;;;;;6.88;0.90;;;20.50;54.20;;;;;;4932896;29;20055;-87
2022/08/07 01:08:59;;;;;;;1.75;0.85;;;20.50;54.40;;;;;;4935066;29;20055;-89
2022/08/07 01:11:25;;;;;;;2.47;0.90;;;20.50;54.80;;;;;;4935162;29;20571;-87
2022/08/07 01:13:50;;;;;;;3.40;0.73;;;20.40;54.30;;;;;;4934344;29;20068;-87
2022/08/07 01:16:16;;;;;;;1.75;0.90;;;20.40;54.60;;;;;;4916531;29;20032;-87
2022/08/07 01:18:42;;;;;;;2.80;0.80;;;20.30;54.90;;;;;;4932934;29;20078;-87
2022/08/07 01:21:14;;;;;;;2.80;1.15;;;20.30;54.60;;;;;;4934202;29;20016;-87
2022/08/07 01:23:41;;;;;;;4.38;0.90;;;20.20;54.80;;;;;;4930696;29;20119;-87
2022/08/07 01:26:09;;;;;;;3.17;1.05;;;20.20;55.30;;;;;;4934289;29;20028;-88
2022/08/07 01:28:36;;;;;;;1.77;1.08;;;20.20;54.90;;;;;;4934354;29;20036;-88
2022/08/07 01:31:02;;;;;;;5.63;1.10;;;20.20;55.20;;;;;;4933903;29;20040;-87
2022/08/07 01:33:28;;;;;;;2.03;0.70;;;20.10;55.40;;;;;;4934136;29;20111;-87
2022/08/07 01:36:01;;;;;;;3.25;1.17;;;20.10;55.50;;;;;;4933255;29;20060;-88
2022/08/07 01:38:27;;;;;;;6.07;1.00;;;20.10;55.40;;;;;;4926935;29;20023;-88
2022/08/07 01:40:58;;;;;;;2.28;0.90;;;20.10;55.30;;;;;;4933721;29;20035;-88
2022/08/07 01:43:25;;;;;;;2.85;0.90;;;20.00;56.10;;;;;;4933444;29;20082;-88
2022/08/07 01:45:52;;;;;;;2.55;0.90;;;19.90;55.90;;;;;;4933267;29;20027;-88
2022/08/07 01:48:18;;;;;;;3.05;0.98;;;19.80;56.30;;;;;;4931900;29;20040;-87
2022/08/07 01:50:52;;;;;;;1.88;1.00;;;19.80;56.50;;;;;;4933361;29;20024;-88
2022/08/07 01:53:20;;;;;;;1.80;0.85;;;19.80;56.20;;;;;;4932151;29;20034;-88
2022/08/07 01:55:49;;;;;;;2.00;1.00;;;19.80;56.50;;;;;;4933444;29;20032;-87
2022/08/07 01:58:20;;;;;;;1.90;0.85;;;19.80;56.60;;;;;;4933480;29;20496;-88
2022/08/07 02:00:51;;;;;;;1.42;0.68;;;19.70;57.00;;;;;;4933337;29;20118;-88
2022/08/07 02:03:21;;;;;;;2.13;1.00;;;19.60;56.90;;;;;;4933084;29;20027;-87
2022/08/07 02:05:53;;;;;;;1.08;0.82;;;19.60;57.20;;;;;;4933327;29;20046;-87
2022/08/07 02:08:22;;;;;;;3.10;1.05;;;19.40;57.60;;;;;;4932944;29;20133;-87
2022/08/07 02:10:55;;;;;;;2.47;1.00;;;19.40;57.80;;;;;;4933404;29;20315;-89
2022/08/07 02:13:23;;;;;;;1.52;0.75;;;19.40;57.70;;;;;;4933225;29;20047;-88
2022/08/07 02:15:51;;;;;;;2.75;1.23;;;19.40;58.00;;;;;;4932945;29;20038;-87
2022/08/07 02:18:18;;;;;;;2.78;1.00;;;19.40;58.10;;;;;;4915477;29;20023;-87
2022/08/07 02:20:47;;;;;;;2.30;1.00;;;19.40;57.90;;;;;;4932930;29;20023;-88
2022/08/07 02:23:15;;;;;;;5.20;1.48;;;19.40;58.20;;;;;;4932877;29;20055;-88
2022/08/07 02:25:42;;;;;;;3.72;1.05;;;19.40;58.50;;;;;;4932913;29;20031;-88
2022/08/07 02:28:09;;;;;;;2.88;1.00;;;19.40;58.70;;;;;;4931117;29;20066;-88
2022/08/07 02:30:37;;;;;;;2.22;1.10;;;19.30;58.90;;;;;;4932469;29;20512;-88
2022/08/07 02:33:04;;;;;;;3.55;1.00;;;19.20;59.00;;;;;;4931761;29;20091;-88
2022/08/07 02:35:33;;;;;;;4.93;1.25;;;19.20;58.90;;;;;;4931190;29;20024;-88
2022/08/07 02:38:01;;;;;;;5.03;1.50;;;19.20;58.90;;;;;;4933051;29;20028;-87
2022/08/07 02:40:29;;;;;;;3.60;1.10;;;19.20;59.30;;;;;;4931389;29;20035;-87
2022/08/07 02:42:56;;;;;;;2.50;1.40;;;19.10;59.40;;;;;;4932830;29;20115;-87
2022/08/07 02:45:25;;;;;;;2.42;1.50;;;19.20;60.10;;;;;;4915151;29;20118;-87
2022/08/07 02:47:51;;;;;;;3.85;1.30;;;19.10;60.00;;;;;;4932305;29;20035;-88
2022/08/07 02:50:16;;;;;;;1.90;1.30;;;19.10;60.20;;;;;;4932704;29;20060;-88
2022/08/07 02:53:06;;;;;;;2.10;1.25;;;19.00;60.50;;;;;;4932664;29;20028;-87
2022/08/07 02:55:34;;;;;;;2.30;1.27;;;19.00;60.60;;;;;;4931817;29;20276;-87
2022/08/07 02:58:09;;;;;;;4.00;1.60;;;19.00;60.80;;;;;;4930778;29;20039;-87
2022/08/07 03:00:37;;;;;;;1.67;1.17;;;18.90;61.10;;;;;;4926195;29;20052;-87
2022/08/07 03:03:04;;;;;;;3.00;1.48;;;18.90;61.00;;;;;;4931662;29;20476;-88
2022/08/07 03:05:31;;;;;;;2.60;1.50;;;18.90;61.60;;;;;;4927790;29;20047;-87
2022/08/07 03:07:58;;;;;;;2.90;1.75;;;18.90;61.40;;;;;;4925944;29;20046;-88
2022/08/07 03:10:23;;;;;;;2.72;1.60;;;18.90;61.80;;;;;;4932149;29;20031;-88
2022/08/07 03:12:50;;;;;;;2.92;1.85;;;18.80;62.00;;;;;;4932095;29;20039;-88
2022/08/07 03:15:16;;;;;;;3.60;1.60;;;18.80;62.20;;;;;;4932300;29;20011;-88
2022/08/07 03:17:42;;;;;;;3.40;1.75;;;18.80;62.40;;;;;;4914760;29;20163;-88
2022/08/07 03:20:09;;;;;;;9.05;2.78;;;18.80;62.40;;;;;;4930449;29;20122;-88
2022/08/07 03:22:37;;;;;;;4.97;1.80;;;18.80;62.30;;;;;;4914600;29;20538;-87
2022/08/07 03:25:03;;;;;;;4.20;1.80;;;18.80;62.80;;;;;;4932486;29;20028;-88
2022/08/07 03:27:29;;;;;;;8.70;1.73;;;18.80;62.30;;;;;;4931823;29;20488;-87
2022/08/07 03:29:55;;;;;;;4.15;1.88;;;18.80;62.70;;;;;;4930015;29;20118;-87
2022/08/07 03:32:30;;;;;;;3.55;2.03;;;18.80;62.90;;;;;;4930421;29;20032;-87
2022/08/07 03:34:56;;;;;;;;;;;18.70;63.00;;;;;;4932725;29;20424;-88
2022/08/07 03:37:24;;;;;;;5.07;2.03;;;18.70;63.00;;;;;;4932411;29;19958;-87
2022/08/07 03:39:50;;;;;;;2.20;1.70;;;18.70;63.00;;;;;;4932114;29;20024;-88
2022/08/07 03:42:17;;;;;;;2.38;1.60;;;18.70;62.90;;;;;;4932446;29;20028;-87
2022/08/07 03:44:43;;;;;;;2.47;1.67;;;18.60;63.60;;;;;;4931781;29;20027;-88
2022/08/07 03:47:11;;;;;;;3.88;1.90;;;18.60;63.50;;;;;;4931877;29;20095;-88
2022/08/07 03:49:37;;;;;;;2.67;1.80;;;18.60;63.60;;;;;;4914319;29;20027;-88
2022/08/07 03:52:05;;;;;;;6.18;1.98;;;18.60;63.30;;;;;;4931887;29;20024;-87
2022/08/07 03:54:30;;;;;;;3.13;1.83;;;18.60;63.40;;;;;;4932168;29;20028;-89
2022/08/07 03:56:57;;;;;;;2.95;1.90;;;18.60;63.60;;;;;;4932162;29;20028;-87
2022/08/07 03:59:26;;;;;;;4.43;1.60;;;18.60;63.70;;;;;;4930657;29;20040;-87
2022/08/07 04:01:54;;;;;;;4.85;1.63;;;18.50;63.90;;;;;;4917637;29;20020;-88
2022/08/07 04:04:20;;;;;;;6.63;1.90;;;18.50;64.00;;;;;;4932255;29;20024;-88
2022/08/07 04:06:47;;;;;;;3.95;1.80;;;18.50;63.60;;;;;;4931734;29;20547;-87
2022/08/07 04:09:14;;;;;;;4.22;1.70;;;18.50;64.00;;;;;;4930119;29;20055;-88
2022/08/07 04:11:40;;;;;;;2.13;1.48;;;18.40;64.40;;;;;;4931860;29;20032;-87
2022/08/07 04:14:07;;;;;;;2.53;1.40;;;18.40;64.70;;;;;;4915986;29;20400;-87
2022/08/07 04:16:33;;;;;;;3.47;1.40;;;18.30;64.40;;;;;;4933948;29;20114;-88
2022/08/07 04:19:00;;;;;;;2.83;1.55;;;18.30;64.90;;;;;;4935297;29;20034;-88
2022/08/07 04:21:28;;;;;;;2.95;1.38;;;18.30;65.00;;;;;;4933869;29;20032;-87
2022/08/07 04:23:55;;;;;;;3.95;1.40;;;18.30;64.90;;;;;;4934999;29;20034;-88
2022/08/07 04:26:20;;;;;;;2.50;1.30;;;18.40;64.80;;;;;;4936864;29;20111;-87
2022/08/07 04:28:46;;;;;;;3.13;1.50;;;18.40;64.70;;;;;;4951343;29;20062;-87
2022/08/07 04:31:12;;;;;;;3.08;1.40;;;18.40;64.90;;;;;;4952508;29;20032;-87
2022/08/07 04:33:39;;;;;;;2.50;1.30;;;18.40;65.10;;;;;;4934921;29;20055;-87
2022/08/07 04:36:07;;;;;;;5.78;1.65;;;18.40;65.80;;;;;;4935352;29;20058;-87
2022/08/07 04:38:36;;;;;;;6.50;1.30;;;18.40;65.30;;;;;;4935198;29;20432;-87
2022/08/07 04:41:02;;;;;;;2.88;1.40;;;18.40;65.30;;;;;;4934870;29;20031;-88
2022/08/07 04:43:39;;;;;;;3.15;1.20;;;18.40;65.80;;;;;;4935219;29;20027;-88
2022/08/07 04:46:25;;;;;;;3.35;1.40;;;18.30;65.90;;;;;;4936451;29;20023;-88
2022/08/07 04:49:02;;;;;;;2.75;1.40;;;18.30;66.10;;;;;;4935191;29;20042;-87
2022/08/07 04:52:14;;;;;;;2.97;1.27;;;18.30;66.10;;;;;;4934441;29;20023;-88
2022/08/07 04:55:06;;;;;;;3.15;1.40;;;18.40;66.30;;;;;;4914178;29;20040;-88
2022/08/07 04:57:56;;;;;;;2.75;1.10;;;18.30;66.30;;;;;;4906889;29;20153;-88
2022/08/07 05:01:12;;;;;;;4.40;1.48;;;18.20;66.90;;;;;;4932813;29;20064;-88
2022/08/07 05:03:56;;;;;;;3.53;1.52;;;18.20;67.20;;;;;;4934526;29;20028;-88
2022/08/07 05:06:33;;;;;;;2.92;1.30;;;18.20;67.10;;;;;;4934717;29;20495;-88
2022/08/07 05:09:22;;;;;;;2.83;1.20;;;18.20;67.20;;;;;;4928932;29;20071;-88
2022/08/07 05:11:51;;;;;;;3.42;1.40;;;18.10;67.60;;;;;;4920545;29;20119;-88
2022/08/07 05:14:44;;;;;;;7.30;1.50;;;18.10;67.80;;;;;;4932797;29;20155;-87
2022/08/07 05:17:14;;;;;;;2.92;1.17;;;18.10;67.90;;;;;;4914347;29;20039;-87
2022/08/07 05:19:45;;;;;;;2.25;1.27;;;18.00;68.10;;;;;;4932410;29;20028;-88
2022/08/07 05:22:12;;;;;;;2.53;1.00;;;18.00;68.20;;;;;;4934004;29;20070;-87
2022/08/07 05:24:39;;;;;;;4.75;1.63;;;18.10;68.50;;;;;;4933592;29;20024;-87
2022/08/07 05:27:08;;;;;;;4.55;1.40;;;18.20;68.70;;;;;;4933511;29;20400;-87
2022/08/07 05:29:38;;;;;;;1.50;1.05;;;18.10;68.40;;;;;;4933731;29;20024;-86
2022/08/07 05:32:07;;;;;;;3.30;1.25;;;18.10;68.50;;;;;;4916336;29;20051;-86
2022/08/07 05:34:35;;;;;;;6.85;1.52;;;18.20;68.80;;;;;;4933968;29;20016;-86
2022/08/07 05:37:02;;;;;;;4.55;1.23;;;18.20;68.90;;;;;;4934916;29;20492;-87
2022/08/07 05:39:27;;;;;;;4.05;1.40;;;18.20;69.30;;;;;;4934110;29;20031;-86
2022/08/07 05:41:54;;;;;;;4.43;1.40;;;18.20;69.20;;;;;;4933794;29;20028;-86
2022/08/07 05:44:20;;;;;;;4.63;1.20;;;18.20;69.20;;;;;;4932267;29;20027;-87
2022/08/07 05:46:50;;;;;;;5.18;1.75;;;18.20;69.00;;;;;;4933514;29;20036;-87
2022/08/07 05:49:16;;;;;;;6.63;1.52;;;18.30;69.30;;;;;;4933685;29;20114;-87
2022/08/07 05:51:44;;;;;;;3.03;1.23;;;18.30;69.50;;;;;;4933699;29;20022;-87
2022/08/07 05:54:10;;;;;;;6.93;1.20;;;18.30;69.00;;;;;;4932092;29;20035;-87
2022/08/07 05:56:39;;;;;;;3.22;1.20;;;18.30;69.30;;;;;;4933739;29;20103;-88
2022/08/07 05:59:08;;;;;;;4.93;1.23;;;18.40;69.60;;;;;;4933446;29;20110;-89
2022/08/07 06:01:37;;;;;;;3.08;1.30;;;18.40;69.50;;;;;;4931879;29;20020;-87
2022/08/07 06:04:04;;;;;;;3.22;1.20;;;18.50;69.80;;;;;;4931782;29;20413;-87
2022/08/07 06:06:32;;;;;;;3.88;1.52;;;18.40;70.00;;;;;;4933587;29;20023;-87
2022/08/07 06:08:59;;;;;;;2.92;1.30;;;18.50;69.90;;;;;;4936120;29;20058;-87
2022/08/07 06:11:26;;;;;;;4.35;1.35;;;18.60;69.50;;;;;;4933227;29;20055;-87
2022/08/07 06:13:52;;;;;;;3.22;1.10;;;18.60;69.80;;;;;;4931564;29;20488;-87
2022/08/07 06:16:21;;;;;;;4.55;1.25;;;18.60;70.00;;;;;;4933348;29;20027;-88
2022/08/07 06:18:47;;;;;;;3.83;1.25;;;18.60;70.00;;;;;;4931686;29;20033;-88
2022/08/07 06:21:14;;;;;;;2.30;1.10;;;18.60;70.40;;;;;;4933379;29;20496;-87
2022/08/07 06:23:40;;;;;;;2.28;1.25;;;18.60;69.70;;;;;;4929719;29;20030;-89
2022/08/07 06:26:10;;;;;;;3.28;1.13;;;18.70;70.30;;;;;;4916240;29;20455;-88
2022/08/07 06:28:52;;;;;;;4.43;1.15;;;18.80;70.20;;;;;;4933252;29;20031;-90
2022/08/07 06:31:19;;;;;;;4.47;1.10;;;18.80;70.30;;;;;;4931770;29;20051;-89
2022/08/07 06:33:47;;;;;;;2.38;1.15;;;18.90;69.70;;;;;;4933190;29;20031;-89
2022/08/07 06:36:13;;;;;;;4.63;1.42;;;19.00;70.10;;;;;;4933147;29;20095;-92
2022/08/07 06:38:40;;;;;;;1.50;1.05;;;18.90;69.80;;;;;;4933154;29;20070;-91
2022/08/07 06:41:13;;;;;;;3.10;1.05;;;19.00;70.00;;;;;;4932961;29;20020;-89
2022/08/07 06:43:40;;;;;;;1.90;0.95;;;19.10;69.60;;;;;;4933084;29;20024;-92
2022/08/07 06:46:07;;;;;;;3.08;1.20;;;19.20;70.10;;;;;;4933061;29;20503;-87
2022/08/07 06:48:36;;;;;;;3.72;1.30;;;19.30;70.10;;;;;;4935550;29;20431;-96
2022/08/07 06:54:51;;;;;;;3.30;1.48;;;19.50;69.80;;;;;;4927939;29;20070;-94
2022/08/07 06:57:53;;;;;;;;;;;;;;;;;;;;;
2022/08/07 07:05:07;;;;;;;3.13;1.00;;;19.90;68.80;;;;;;4877509;29;20037;-92
2022/08/07 07:08:13;;;;;;;;;;;;;;;;;;;;;
2022/08/07 07:11:11;;;;;;;;;;;;;;;;;;;;;
2022/08/07 07:14:08;;;;;;;2.97;1.17;;;20.20;68.30;;;;;;4874986;29;20056;-94
2022/08/07 07:17:04;;;;;;;;;;;;;;;;;;;;;
2022/08/07 07:23:41;;;;;;;3.92;1.23;;;20.50;66.10;;;;;;4860012;29;20029;-94
2022/08/07 07:26:51;;;;;;;;;;;;;;;;;;;;;
2022/08/07 07:30:06;;;;;;;;;;;;;;;;;;;;;
2022/08/07 07:36:28;;;;;;;3.35;1.20;;;21.10;65.10;;;;;;4810502;29;20509;-95
2022/08/07 07:39:09;;;;;;;3.85;1.60;;;21.10;65.40;;;;;;4913078;29;20079;-92
2022/08/07 07:42:23;;;;;;;3.97;1.10;;;21.10;64.40;;;;;;4897329;29;20035;-93
2022/08/07 07:44:59;;;;;;;;;;;;;;;;;;;;;
2022/08/07 07:47:30;;;;;;;5.80;1.10;;;21.30;64.60;;;;;;4915015;29;20036;-93
2022/08/07 07:53:21;;;;;;;1.77;0.88;;;21.40;64.10;;;;;;4914775;29;20040;-95
2022/08/07 07:55:58;;;;;;;;;;;;;;;;;;;;;
2022/08/07 08:01:39;;;;;;;1.63;0.80;;;21.70;64.60;;;;;;4917581;29;20064;-94
2022/08/07 08:04:06;;;;;;;3.38;1.00;;;21.90;63.90;;;;;;4916404;29;20024;-94
2022/08/07 08:06:39;;;;;;;4.05;1.00;;;22.00;63.30;;;;;;4916591;29;20036;-93
2022/08/07 08:09:19;;;;;;;2.50;0.80;;;22.00;63.20;;;;;;4917803;29;20031;-94
2022/08/07 08:11:45;;;;;;;3.42;1.00;;;22.00;63.10;;;;;;4916399;29;20520;-93
2022/08/07 08:14:11;;;;;;;4.30;1.00;;;22.20;63.50;;;;;;4915945;29;20020;-94
2022/08/07 08:16:41;;;;;;;4.15;1.00;;;22.20;63.30;;;;;;4916544;29;20369;-93
2022/08/07 08:19:23;;;;;;;6.75;1.10;;;22.30;62.90;;;;;;4916352;29;20036;-94
2022/08/07 08:27:33;;;;;;;7.15;1.15;;;22.70;63.10;;;;;;4917582;29;20039;-94
2022/08/07 08:30:13;;;;;;;2.50;1.10;;;22.70;62.40;;;;;;4920049;29;20043;-93
2022/08/07 08:32:46;;;;;;;1.65;0.73;;;22.80;62.20;;;;;;4934768;29;20114;-93
2022/08/07 08:35:17;;;;;;;2.20;1.00;;;22.90;62.30;;;;;;4934728;29;20114;-93
2022/08/07 08:37:45;;;;;;;1.95;1.00;;;22.90;61.80;;;;;;4913182;29;20046;-87
2022/08/07 08:40:25;;;;;;;4.05;0.82;;;23.00;61.70;;;;;;4929376;29;20082;-89
2022/08/07 08:43:00;;;;;;;3.58;0.90;;;23.10;61.20;;;;;;4935382;29;20393;-87
2022/08/07 08:45:45;;;;;;;2.05;0.90;;;23.20;60.80;;;;;;4934770;29;20215;-87
2022/08/07 08:48:13;;;;;;;3.50;0.85;;;23.20;61.20;;;;;;4933218;29;20036;-88
2022/08/07 08:50:57;;;;;;;1.23;0.80;;;23.40;61.60;;;;;;4934954;29;20065;-88
2022/08/07 08:53:25;;;;;;;3.70;1.10;;;23.50;60.30;;;;;;4923799;29;20552;-87
2022/08/07 08:55:58;;;;;;;3.42;0.90;;;23.60;60.10;;;;;;4934567;29;20505;-90
2022/08/07 08:58:52;;;;;;;4.20;1.08;;;23.70;59.80;;;;;;4933220;29;20024;-91
2022/08/07 09:01:48;;;;;;;6.88;1.33;;;23.90;59.90;;;;;;4932766;29;20075;-82
2022/08/07 09:04:21;;;;;;;8.55;1.17;;;23.90;60.00;;;;;;4924326;29;20070;-82
2022/08/07 09:07:04;;;;;;;2.28;0.80;;;24.10;59.50;;;;;;4934472;29;20050;-84
2022/08/07 09:09:53;;;;;;;3.70;1.10;;;24.20;59.40;;;;;;4934460;29;20038;-84
2022/08/07 09:12:38;;;;;;;9.52;0.98;;;24.30;59.20;;;;;;4934284;29;20516;-83
2022/08/07 09:15:27;;;;;;;4.15;1.00;;;24.40;59.20;;;;;;4934109;29;20115;-83
2022/08/07 09:18:36;;;;;;;7.90;0.90;;;24.50;59.20;;;;;;4934043;29;20039;-85
2022/08/07 09:21:19;;;;;;;5.20;0.90;;;24.60;58.60;;;;;;4935566;29;20111;-94
2022/08/07 09:24:25;;;;;;;3.63;0.70;;;24.70;58.90;;;;;;4935271;29;20023;-93
2022/08/07 09:27:41;;;;;;;;;;;;;;;;;;;;;
2022/08/07 09:36:17;;;;;;;2.10;0.75;;;25.20;58.40;;;;;;5034571;23;20055;-86
2022/08/07 09:38:58;;;;;;;1.77;0.57;;;25.30;57.70;;;;;;4969085;28;20097;-88
2022/08/07 09:41:35;;;;;;;3.10;0.93;;;25.30;58.20;;;;;;4955216;28;20125;-85
2022/08/07 09:44:35;;;;;;;3.08;0.70;;;25.50;58.30;;;;;;4971812;28;20022;-88
2022/08/07 09:47:38;;;;;;;1.75;0.63;;;25.50;57.60;;;;;;4967748;28;20058;-88
2022/08/07 09:50:14;;;;;;;2.10;0.60;;;25.60;58.10;;;;;;4970877;28;20023;-86
2022/08/07 09:52:50;;;;;;;5.25;0.80;;;25.70;57.90;;;;;;4967168;28;20031;-88
2022/08/07 09:55:19;;;;;;;2.70;0.90;;;25.80;57.90;;;;;;4968193;28;20027;-90
2022/08/07 09:57:59;;;;;;;6.15;0.90;;;25.90;58.00;;;;;;4954625;28;20031;-88
2022/08/07 10:00:37;;;;;;;4.13;0.98;;;26.00;57.30;;;;;;4970493;28;20027;-87
2022/08/07 10:03:08;;;;;;;2.92;0.90;;;26.10;58.10;;;;;;4970608;28;20023;-88
2022/08/07 10:05:48;;;;;;;2.95;0.68;;;26.20;58.00;;;;;;4971874;28;20031;-90
2022/08/07 10:09:02;;;;;;;4.50;0.88;;;26.20;57.50;;;;;;4971083;28;20152;-84
2022/08/07 10:11:50;;;;;;;8.25;1.00;;;26.30;57.00;;;;;;4884762;28;20045;-92
2022/08/07 10:14:44;;;;;;;2.38;0.63;;;26.50;57.40;;;;;;4956185;28;20046;-95
2022/08/07 10:17:16;;;;;;;3.47;1.08;;;26.60;56.70;;;;;;4972071;28;20034;-90
2022/08/07 10:20:11;;;;;;;16.25;7.35;;;26.60;57.00;;;;;;4970956;28;20078;-94
2022/08/07 10:23:10;;;;;;;10.20;4.93;;;26.70;56.80;;;;;;4952507;28;20035;-91
2022/08/07 10:25:36;;;;;;;10.18;3.05;;;26.70;57.00;;;;;;4971970;28;20025;-91
2022/08/07 10:28:23;;;;;;;10.80;6.47;;;26.80;56.60;;;;;;4972862;28;20043;-92
2022/08/07 10:31:01;;;;;;;3.20;1.50;;;26.80;57.00;;;;;;4960945;28;20397;-91
2022/08/07 10:33:56;;;;;;;5.55;1.52;;;27.00;55.60;;;;;;4971602;28;20034;-92
2022/08/07 10:36:40;;;;;;;9.13;5.55;;;27.10;56.00;;;;;;4961393;28;20054;-93
2022/08/07 10:39:34;;;;;;;8.05;3.55;;;27.20;56.20;;;;;;4971349;28;20499;-95
2022/08/07 10:42:34;;;;;;;3.85;1.30;;;27.40;55.90;;;;;;4953632;28;20038;-93
2022/08/07 10:45:36;;;;;;;4.32;1.10;;;27.50;55.40;;;;;;4955023;28;20035;-92
2022/08/07 10:48:20;;;;;;;6.35;0.95;;;27.50;55.50;;;;;;4972897;28;20010;-96
2022/08/07 10:50:54;;;;;;;4.47;1.00;;;27.60;55.40;;;;;;4972461;28;20398;-91
2022/08/07 10:53:29;;;;;;;2.72;1.10;;;27.70;55.30;;;;;;4955210;28;20399;-96
2022/08/07 10:56:31;;;;;;;2.90;0.80;;;27.90;55.20;;;;;;4965633;28;20037;-90
2022/08/07 10:59:09;;;;;;;3.75;1.08;;;28.00;55.30;;;;;;4970643;28;20585;-91
2022/08/07 11:01:35;;;;;;;2.42;0.98;;;28.20;55.40;;;;;;4971164;28;20030;-89
2022/08/07 11:04:28;;;;;;;3.70;1.00;;;28.20;54.80;;;;;;4967775;28;20050;-94
2022/08/07 11:07:13;;;;;;;4.15;0.98;;;28.20;54.70;;;;;;4962638;28;20019;-90
2022/08/07 11:09:48;;;;;;;1.95;1.00;;;28.30;54.90;;;;;;4973932;28;20511;-93
2022/08/07 11:12:37;;;;;;;3.70;0.88;;;28.50;54.60;;;;;;4974852;28;20546;-90
2022/08/07 11:15:10;;;;;;;2.50;1.00;;;28.50;54.40;;;;;;4968002;28;20484;-91
2022/08/07 11:17:45;;;;;;;5.07;1.23;;;28.60;54.50;;;;;;4972565;28;20106;-90
2022/08/07 11:20:22;;;;;;;3.22;0.90;;;28.70;54.40;;;;;;4971405;28;20035;-90
2022/08/07 11:23:17;;;;;;;4.25;1.10;;;28.80;54.20;;;;;;4957767;28;20019;-91
2022/08/07 11:26:04;;;;;;;7.93;1.00;;;28.90;54.40;;;;;;4960706;28;20487;-92
2022/08/07 11:28:50;;;;;;;4.25;0.88;;;28.80;54.40;;;;;;4957311;28;20503;-84
2022/08/07 11:31:37;;;;;;;6.35;0.90;;;28.90;54.00;;;;;;4969314;28;20031;-84
2022/08/07 11:34:25;;;;;;;3.58;0.80;;;28.90;54.00;;;;;;4974380;28;20306;-85
2022/08/07 11:37:09;;;;;;;2.30;0.70;;;29.10;54.00;;;;;;4974651;28;20027;-84
2022/08/07 11:39:54;;;;;;;2.10;0.90;;;29.30;53.90;;;;;;4974567;28;20081;-84
2022/08/07 11:42:31;;;;;;;3.50;0.70;;;29.60;53.60;;;;;;4974227;28;20088;-85
2022/08/07 11:45:35;;;;;;;5.47;1.20;;;29.60;53.60;;;;;;4974072;28;20045;-85
2022/08/07 11:48:16;;;;;;;3.05;0.80;;;29.60;54.20;;;;;;4961072;28;20043;-85
2022/08/07 11:50:54;;;;;;;1.35;0.70;;;29.70;53.70;;;;;;4973001;28;20019;-85
2022/08/07 11:53:38;;;;;;;2.15;0.93;;;29.80;53.50;;;;;;4974704;28;20031;-84
2022/08/07 11:56:44;;;;;;;1.95;0.95;;;30.00;53.10;;;;;;4957962;28;20259;-85
2022/08/07 11:59:21;;;;;;;3.67;0.75;;;30.00;53.20;;;;;;4938174;28;20039;-85
2022/08/07 12:02:06;;;;;;;5.20;0.82;;;30.20;53.50;;;;;;4972545;28;20023;-85
2022/08/07 12:04:41;;;;;;;5.47;1.00;;;30.30;52.60;;;;;;4973826;28;20053;-85
2022/08/07 12:07:24;;;;;;;2.33;1.10;;;30.50;52.20;;;;;;4974005;28;20585;-84
2022/08/07 12:10:02;;;;;;;2.67;0.80;;;30.60;52.70;;;;;;4974338;28;20027;-85
2022/08/07 12:12:38;;;;;;;2.53;0.68;;;30.80;52.80;;;;;;4974491;28;20442;-85
2022/08/07 12:15:16;;;;;;;8.90;0.90;;;30.90;52.00;;;;;;4973673;28;20037;-85
2022/08/07 12:17:46;;;;;;;2.80;0.70;;;30.90;51.70;;;;;;4973796;28;20109;-85
2022/08/07 12:20:36;;;;;;;2.90;0.90;;;30.90;51.70;;;;;;4973848;28;20027;-85
2022/08/07 12:23:20;;;;;;;4.55;0.70;;;31.10;51.00;;;;;;4968129;28;20113;-84
2022/08/07 12:26:01;;;;;;;2.33;0.73;;;31.10;50.90;;;;;;4972246;28;20027;-84
2022/08/07 12:28:38;;;;;;;2.20;0.90;;;31.10;51.30;;;;;;4956001;28;20045;-85
2022/08/07 12:31:16;;;;;;;2.17;0.98;;;31.20;51.20;;;;;;4973623;28;20022;-85
2022/08/07 12:33:44;;;;;;;1.65;0.73;;;31.40;51.50;;;;;;4973610;28;20469;-84
2022/08/07 12:36:12;;;;;;;4.78;0.77;;;31.60;51.00;;;;;;4956018;28;20256;-85
2022/08/07 12:38:39;;;;;;;2.55;0.65;;;31.60;50.60;;;;;;4973563;28;20105;-84
2022/08/07 12:41:07;;;;;;;1.65;0.90;;;31.80;51.00;;;;;;4973307;28;20487;-84
2022/08/07 12:43:35;;;;;;;1.63;0.82;;;31.80;50.80;;;;;;4971972;28;20027;-84
2022/08/07 12:46:04;;;;;;;1.90;0.60;;;31.90;51.40;;;;;;4971689;28;20026;-84
2022/08/07 12:48:49;;;;;;;3.38;0.70;;;32.20;50.50;;;;;;4973090;28;20035;-84
2022/08/07 12:51:18;;;;;;;1.77;0.77;;;32.00;50.30;;;;;;4973157;28;20055;-84
2022/08/07 12:53:59;;;;;;;2.13;0.77;;;32.00;49.30;;;;;;4973207;28;20110;-85
2022/08/07 12:56:38;;;;;;;5.35;0.55;;;32.00;49.30;;;;;;4973060;28;20491;-84
2022/08/07 12:59:05;;;;;;;2.55;0.80;;;32.20;49.20;;;;;;4972929;28;20037;-83
2022/08/07 13:02:20;;;;;;;3.72;0.90;;;32.50;48.80;;;;;;4972973;28;20114;-83
2022/08/07 13:05:23;;;;;;;4.57;0.90;;;32.60;49.10;;;;;;4972305;28;20031;-84
2022/08/07 13:08:17;;;;;;;1.70;0.60;;;32.70;48.70;;;;;;4970050;28;20508;-84
2022/08/07 13:10:58;;;;;;;1.08;0.60;;;32.80;48.80;;;;;;4967262;28;20023;-84
2022/08/07 13:13:41;;;;;;;3.30;0.70;;;33.00;48.40;;;;;;4972549;28;20491;-84
2022/08/07 13:16:45;;;;;;;1.75;0.90;;;33.30;48.20;;;;;;4972812;28;20061;-84
2022/08/07 13:19:29;;;;;;;3.78;0.90;;;33.60;47.80;;;;;;4878513;29;20024;-84
2022/08/07 13:22:08;;;;;;;2.20;0.60;;;33.80;47.80;;;;;;4899574;29;20036;-84
2022/08/07 13:24:49;;;;;;;1.90;0.70;;;34.00;46.10;;;;;;4930111;28;20396;-84
2022/08/07 13:27:51;;;;;;;4.70;0.95;;;34.00;46.50;;;;;;4972243;28;20043;-85
2022/08/07 13:30:18;;;;;;;3.45;0.70;;;34.10;46.30;;;;;;4968621;28;20042;-85
2022/08/07 13:32:49;;;;;;;2.70;0.75;;;34.20;47.40;;;;;;4968815;28;20019;-86
2022/08/07 13:35:36;;;;;;;2.70;0.77;;;34.40;46.40;;;;;;4972486;28;20050;-86
2022/08/07 13:38:27;;;;;;;1.40;0.70;;;34.40;46.00;;;;;;4954815;28;20642;-85
2022/08/07 13:40:55;;;;;;;4.13;0.80;;;34.50;46.00;;;;;;4972118;28;20349;-85
2022/08/07 13:43:23;;;;;;;4.60;1.00;;;34.90;45.50;;;;;;4971866;28;20503;-85
2022/08/07 13:45:55;;;;;;;2.10;0.60;;;35.30;45.70;;;;;;4970583;28;20015;-85
2022/08/07 13:48:23;;;;;;;1.55;0.45;;;35.60;45.70;;;;;;4971982;28;20035;-86
2022/08/07 13:50:50;;;;;;;2.17;0.70;;;36.00;45.60;;;;;;4972381;28;20031;-86
2022/08/07 13:53:27;;;;;;;6.00;0.90;;;36.60;45.20;;;;;;4945930;29;20573;-87
2022/08/07 13:55:57;;;;;;;4.50;0.88;;;37.10;45.00;;;;;;4967291;28;20023;-87
2022/08/07 14:01:14;;;;;;;2.35;0.80;;;37.30;44.70;;;;;;4972061;28;20045;-87
2022/08/07 14:03:41;;;;;;;4.28;0.60;;;37.60;44.50;;;;;;4972551;28;20060;-86
2022/08/07 14:06:09;;;;;;;0.73;0.50;;;38.40;44.60;;;;;;4973781;28;20085;-87
2022/08/07 14:08:48;;;;;;;2.72;0.70;;;39.70;44.00;;;;;;4971638;28;20035;-87
2022/08/07 14:11:18;;;;;;;4.50;0.75;;;41.40;43.00;;;;;;4971836;28;20027;-87
2022/08/07 14:13:53;;;;;;;2.20;0.70;;;42.70;42.60;;;;;;4971521;28;20077;-86
2022/08/07 14:16:24;;;;;;;4.90;0.70;;;44.10;42.60;;;;;;4971513;28;20030;-85